Date,TemperatureHighF,TemperatureAvgF,TemperatureLowF,DewpointHighF,DewpointAvgF,DewpointLowF,HumidityHigh,HumidityAvg,HumidityLow,PressureMaxIn,PressureMinIn,WindSpeedMaxMPH,WindSpeedAvgMPH,GustSpeedMaxMPH,PrecipitationSumIn
2013-1-1,34.3,26.2,14.4,27.9,17.9,6.0,79,70,60,29.86,29.60,18,9,24,0.00
2013-1-2,24.0,15.5,5.4,17.7,8.0,-1.7,82,72,58,30.05,29.84,18,8,26,0.00
2013-1-3,20.6,12.5,5.1,9.0,2.3,-3.6,79,64,43,30.08,29.92,9,3,11,0.00
2013-1-4,35.2,26.6,12.7,26.3,19.7,7.4,93,76,60,29.92,29.71,10,3,14,0.00
2013-1-5,34.2,30.1,21.1,27.6,21.6,14.5,80,70,60,30.21,29.72,17,8,20,0.00
2013-1-6,32.1,26.8,20.6,27.3,22.8,15.5,91,85,77,30.17,29.88,3,0,4,0.00
2013-1-7,35.0,27.6,18.2,31.3,20.6,11.6,96,75,56,30.34,29.90,14,5,17,0.00
2013-1-8,41.2,29.7,18.1,27.4,21.7,13.1,93,74,48,30.32,30.18,5,1,8,0.00
2013-1-9,42.8,31.7,24.5,32.3,26.5,22.0,92,81,59,30.36,29.90,12,2,19,0.00
2013-1-10,42.4,37.8,32.0,33.3,28.0,24.1,80,68,59,30.48,29.91,18,9,23,0.01
2013-1-11,36.8,31.6,25.2,32.4,26.4,21.6,96,82,61,30.47,30.19,5,0,7,0.12
2013-1-12,36.8,35.2,33.4,36.3,34.5,32.4,98,97,96,30.19,30.08,3,0,4,0.09
2013-1-13,41.1,36.7,35.4,40.8,36.3,34.9,99,98,98,30.11,29.91,3,0,7,0.00
2013-1-14,54.5,41.8,36.4,49.9,36.3,26.4,99,82,56,30.19,29.80,14,4,17,0.01
2013-1-15,37.3,35.6,33.6,27.9,26.0,22.8,72,68,62,30.27,30.18,7,5,9,0.00
2013-1-16,29.7,29.0,28.1,28.4,27.7,26.6,95,95,94,30.10,29.75,3,0,4,0.00
2013-1-17,38.0,30.0,20.3,30.0,23.0,6.7,95,76,53,30.08,29.75,14,6,19,0.05
2013-1-18,21.1,15.8,9.4,11.8,2.3,-6.2,68,55,41,30.36,30.03,16,6,21,0.00
2013-1-19,38.6,27.1,17.3,28.3,19.1,6.9,81,72,63,30.30,29.80,4,1,11,0.00
2013-1-20,47.2,35.8,24.3,34.4,23.4,5.3,82,62,39,29.84,29.44,14,6,26,0.06
2013-1-21,25.3,21.2,16.6,18.3,8.6,-0.1,91,59,42,30.00,29.77,12,4,26,0.00
2013-1-22,21.1,16.5,7.9,17.9,8.5,-2.4,89,71,43,30.00,29.74,15,5,19,0.00
2013-1-23,7.8,3.2,-0.8,1.6,-7.1,-12.0,81,62,48,30.10,29.99,16,8,22,0.00
2013-1-24,12.4,4.7,-2.7,-2.6,-8.9,-14.8,66,53,39,30.17,30.00,22,12,31,0.00
2013-1-25,18.4,11.3,4.4,3.1,-3.2,-6.4,64,52,39,30.23,30.02,22,6,25,0.00
2013-1-26,18.0,14.2,9.5,4.5,1.7,-3.7,67,57,41,30.15,29.97,17,8,21,0.00
2013-1-27,21.8,16.7,11.4,5.4,0.4,-7.1,68,49,31,30.41,30.14,17,8,22,0.00
2013-1-28,20.6,19.2,17.1,18.6,7.4,-7.5,92,64,29,30.39,30.02,6,1,14,0.00
2013-1-29,31.2,22.9,10.5,30.2,20.6,8.1,96,91,79,30.18,30.02,3,0,5,0.04
2013-1-30,52.8,36.8,31.3,52.1,36.2,30.3,99,98,96,30.12,29.37,5,1,7,0.52
2013-1-31,57.9,54.1,47.4,56.9,53.2,41.9,99,97,81,29.35,28.81,13,2,17,0.64
2013-2-8,15.8,15.1,13.9,13.4,12.5,10.7,90,89,87,30.28,29.83,11,8,16,0.00
2013-2-9,19.7,16.5,13.6,19.4,12.5,4.0,100,84,63,30.16,29.73,15,10,19,0.00
2013-2-10,29.1,17.4,4.1,12.0,4.4,-1.6,92,58,39,30.36,30.15,12,4,19,0.00
2013-2-11,29.9,18.9,-0.1,28.9,16.9,-3.6,100,92,82,30.32,29.58,3,0,6,0.00
2013-2-12,41.1,37.1,29.3,34.4,29.5,26.7,98,74,62,29.77,29.55,12,6,19,0.31
2013-2-13,35.1,33.7,32.6,27.0,25.0,23.9,72,70,69,29.76,29.74,9,6,14,0.00
2013-2-14,35.1,32.5,23.9,25.6,23.7,21.1,89,70,60,29.91,29.83,8,4,12,0.01
2013-2-15,47.4,37.9,24.2,31.0,26.9,21.2,89,65,48,29.93,29.85,4,1,6,0.00
2013-2-16,36.5,32.0,25.7,28.7,24.3,14.1,90,73,59,29.92,29.72,8,4,10,0.00
2013-2-17,25.7,18.7,13.6,16.7,11.6,5.0,89,74,58,29.72,29.31,27,14,31,0.01
2013-2-18,24.9,18.2,10.5,8.5,2.7,-4.8,76,53,29,30.05,29.55,24,14,37,0.00
2013-2-19,39.0,26.3,17.7,26.1,8.8,-4.3,71,48,30,30.10,29.79,4,1,9,0.00
2013-2-23,35.7,33.1,30.4,32.1,31.0,27.0,97,92,81,30.21,29.94,4,1,8,0.02
2013-2-24,32.9,31.3,29.0,31.8,30.2,28.0,97,96,92,29.94,29.73,3,0,5,0.00
2013-2-25,37.6,29.5,15.2,34.9,28.0,12.9,97,94,86,30.20,29.87,3,0,5,0.12
2013-2-26,38.9,34.9,29.7,34.5,32.3,28.8,98,90,80,30.32,30.20,3,0,5,0.39
2013-2-27,35.0,33.0,31.1,34.0,32.0,29.4,100,96,91,30.13,29.63,11,6,14,0.24
2013-2-28,39.8,34.8,30.5,37.1,33.4,29.5,97,94,87,29.63,29.51,4,1,5,0.28
2013-3-1,38.6,34.2,30.8,32.9,31.1,28.2,98,89,76,29.64,29.50,6,2,10,0.01
2013-3-2,38.9,34.2,30.1,30.6,28.6,26.3,94,80,69,29.63,29.57,10,4,13,0.00
2013-3-3,31.9,29.8,29.2,29.0,27.9,27.4,94,93,89,29.61,29.57,6,4,8,0.01
2013-3-9,53.9,41.6,26.8,30.2,22.9,11.7,93,53,20,30.33,30.18,3,0,5,0.00
2013-3-10,46.0,29.5,21.4,30.3,25.0,19.6,95,85,52,30.38,30.26,4,1,7,0.00
2013-3-13,44.7,39.4,33.6,34.7,30.8,27.8,81,71,60,29.72,29.65,10,4,13,0.00
2013-3-14,33.7,29.5,19.4,27.6,20.4,8.2,82,69,54,29.76,29.62,19,8,21,0.01
2013-3-15,36.3,25.2,16.7,29.5,15.0,6.0,95,66,37,29.79,29.57,18,7,23,0.00
2013-3-16,29.9,26.7,23.2,26.9,17.3,12.1,93,68,52,29.86,29.64,9,5,11,0.00
2013-3-17,27.1,22.7,15.9,15.9,11.0,3.1,81,61,44,30.29,29.86,19,8,25,0.00
2013-3-18,35.9,22.8,10.3,22.3,8.4,-0.9,76,55,26,30.42,30.22,7,1,8,0.00
2013-3-19,31.4,27.9,23.9,30.1,26.3,21.7,96,94,74,30.22,29.69,11,5,14,0.02
2013-3-20,35.2,28.9,22.8,25.2,22.3,18.5,95,77,58,29.72,29.62,11,4,15,0.12
2013-3-21,41.9,27.8,18.6,25.5,17.8,11.8,85,67,37,29.74,29.57,6,1,9,0.19
2013-3-22,35.7,26.3,14.1,24.6,18.3,10.5,90,73,50,29.66,29.58,11,3,13,0.00
2013-3-23,38.1,31.7,26.1,26.6,22.8,18.3,77,70,49,29.71,29.55,19,10,26,0.00
2013-3-24,40.2,34.8,25.3,28.3,25.7,21.8,88,70,59,29.77,29.68,15,7,22,0.00
2013-3-25,39.3,30.6,17.5,31.3,25.6,15.6,95,82,67,29.75,29.54,8,2,9,0.00
2013-3-26,43.6,38.3,33.3,30.0,26.0,22.2,85,62,47,29.73,29.55,8,4,13,0.00
2013-3-27,42.7,38.8,35.2,33.6,28.6,24.0,89,67,59,29.85,29.70,12,6,17,0.00
2013-3-28,43.7,39.0,34.1,36.6,33.6,31.6,95,82,65,29.98,29.85,6,1,11,0.04
2013-3-29,46.7,42.6,39.7,36.2,33.9,31.7,81,71,61,30.00,29.94,10,5,14,0.00
2013-3-30,47.3,40.8,30.8,32.6,27.6,18.1,79,61,37,30.06,29.97,8,4,12,0.00
2013-3-31,55.1,39.3,26.1,38.4,26.6,22.0,91,64,29,30.08,29.76,4,1,7,0.02
2013-4-1,54.0,40.1,32.5,41.8,34.1,15.4,97,81,44,29.77,29.43,15,4,20,0.43
2013-4-2,32.4,29.4,27.5,16.3,13.3,10.4,58,51,46,29.77,29.69,12,6,15,0.00
2013-4-26,48.5,46.7,44.7,36.4,34.3,33.3,68,62,58,30.40,30.38,1,0,5,0.00
2013-4-27,60.2,50.6,39.0,42.0,36.5,30.9,83,60,33,30.39,30.23,6,1,7,0.00
2013-4-28,65.4,51.2,38.6,41.6,37.7,34.3,88,63,34,30.30,30.17,6,2,8,0.00
2013-4-29,67.6,52.4,41.6,45.8,39.9,35.5,85,65,36,30.23,30.12,4,1,8,0.00
2013-4-30,68.3,54.6,45.0,43.3,38.3,32.4,83,57,31,30.33,30.20,6,1,7,0.00
2013-5-1,71.0,54.7,40.1,39.7,34.3,22.3,79,49,22,30.43,30.33,5,1,6,0.00
2013-5-2,69.5,51.9,43.3,45.9,38.3,28.5,79,61,28,30.48,30.32,7,1,12,0.00
2013-5-3,63.8,51.0,39.2,47.8,41.4,34.8,89,71,51,30.51,30.34,5,1,9,0.00
2013-5-4,65.6,51.9,41.7,45.2,40.8,31.2,96,69,28,30.35,30.21,5,1,10,0.00
2013-5-5,66.7,49.2,36.4,44.5,38.3,32.2,88,69,35,30.30,30.17,5,1,8,0.00
2013-5-6,68.9,53.5,38.6,49.2,42.1,36.3,93,68,34,30.22,30.07,6,1,8,0.00
2013-5-7,77.5,60.0,44.9,57.9,49.2,39.4,96,72,26,30.13,30.01,4,1,7,0.00
2013-5-8,71.4,61.9,53.5,59.5,56.1,51.9,98,83,59,30.17,30.03,5,1,7,0.17
2013-5-9,61.9,56.9,54.0,58.6,55.9,53.2,98,97,87,30.02,29.85,4,0,4,0.15
2013-5-10,69.8,60.7,54.4,61.9,56.7,53.8,99,88,62,29.91,29.84,7,1,13,0.00
2013-5-11,67.0,60.2,55.2,62.8,57.8,53.6,97,92,82,29.84,29.61,6,2,8,0.16
2013-5-17,62.3,57.3,50.6,46.4,42.5,39.7,76,58,46,30.17,29.99,13,5,14,0.00
2013-5-18,65.8,58.7,48.0,48.8,44.7,36.8,83,61,35,30.25,30.17,4,1,8,0.00
2013-5-19,59.9,54.4,49.4,53.6,50.4,46.6,91,86,78,30.31,30.21,6,2,8,0.00
2013-5-20,70.4,62.9,55.1,63.0,59.0,54.3,97,87,74,29.99,29.91,8,2,9,0.20
2013-5-21,59.2,55.2,50.9,57.2,53.8,49.3,97,95,92,30.07,29.89,12,3,14,0.36
2013-5-22,57.6,52.4,50.7,55.6,51.5,49.8,98,97,93,29.98,29.85,6,1,7,0.48
2013-5-23,68.3,59.7,50.8,67.0,58.3,50.3,99,95,91,29.90,29.72,5,1,8,0.12
2013-5-24,66.6,60.0,49.9,64.3,57.5,48.3,99,92,76,29.81,29.59,11,3,14,0.35
2013-5-25,50.6,47.8,39.0,49.0,46.0,37.7,97,94,86,29.81,29.67,12,6,16,0.71
2013-5-26,52.7,46.3,38.7,45.5,41.0,37.4,96,82,68,30.00,29.64,17,9,20,0.14
2013-5-27,63.1,53.6,42.2,45.1,40.3,37.0,88,63,39,30.14,30.00,12,5,15,0.00
2013-5-28,69.3,55.8,43.2,50.6,44.0,39.3,92,67,40,30.22,30.12,4,1,7,0.00
2013-5-29,56.6,54.1,51.9,55.4,52.0,45.1,98,93,76,30.14,29.96,5,1,5,0.07
2013-5-30,80.3,66.8,55.9,66.4,60.3,55.3,99,82,53,30.01,29.95,10,2,15,0.19
2013-5-31,89.6,74.7,59.6,66.9,62.6,58.7,98,70,39,30.04,29.86,4,1,12,0.00
2013-6-1,90.3,76.7,64.1,69.3,64.8,60.5,94,69,37,29.90,29.76,4,1,8,0.00
2013-6-2,90.0,74.6,65.8,70.3,66.7,62.4,97,79,45,29.77,29.58,15,2,16,0.09
2013-6-3,77.8,68.7,62.1,65.3,59.7,50.6,97,76,40,29.76,29.67,6,2,9,0.31
2013-6-4,63.8,59.0,54.1,50.9,46.8,43.1,72,64,55,30.04,29.75,15,8,22,0.02
2013-6-5,71.0,61.0,53.5,51.7,45.4,39.4,76,58,36,30.13,30.03,10,3,12,0.00
2013-6-6,70.6,62.4,55.7,55.9,49.2,43.5,83,63,45,30.16,30.06,6,2,9,0.00
2013-6-7,57.3,53.9,50.4,53.8,51.0,45.7,96,90,71,30.08,29.88,9,3,12,0.06
2013-6-8,68.8,60.6,53.4,60.6,56.4,51.8,96,87,74,29.95,29.66,11,5,14,0.04
2013-6-9,73.9,65.6,56.9,59.0,56.1,52.6,90,72,55,30.12,29.95,8,3,11,0.00
2013-6-10,68.7,61.7,55.0,59.4,56.4,52.4,96,83,70,30.17,29.99,3,1,6,0.13
2013-6-11,59.6,56.6,54.6,56.4,54.8,53.3,97,94,86,29.99,29.54,9,3,11,0.88
2013-6-12,64.9,61.1,55.1,57.0,55.2,53.0,97,81,69,29.77,29.52,13,6,16,0.01
2013-6-13,68.1,60.5,53.8,57.4,54.5,50.0,97,81,60,29.76,29.67,4,1,4,0.10
2013-6-14,73.7,63.1,55.1,60.0,54.8,50.4,98,77,46,29.73,29.64,5,1,6,0.00
2013-6-15,75.2,66.1,57.7,54.8,50.6,47.0,72,58,41,29.87,29.73,9,2,13,0.00
2013-6-16,74.3,63.0,53.4,61.9,55.6,46.8,92,78,47,29.88,29.66,4,0,5,0.01
2013-6-17,78.3,66.8,58.6,63.6,59.2,56.6,94,78,48,29.83,29.70,7,2,11,0.05
2013-6-18,64.8,60.7,54.9,58.2,55.8,52.9,94,84,69,29.94,29.82,8,1,13,0.04
2013-6-19,71.3,62.0,50.3,54.3,50.3,44.7,95,68,43,30.11,29.89,7,2,8,0.00
2013-6-20,78.8,63.7,50.8,59.6,51.5,45.3,84,66,36,30.22,30.11,4,1,6,0.00
2013-6-21,84.7,67.4,56.5,63.4,56.3,51.2,89,70,38,30.20,30.14,5,1,7,0.00
2013-6-22,74.6,67.6,61.3,71.3,62.6,54.1,96,84,67,30.17,30.05,4,0,7,0.30
2013-6-23,79.8,69.6,65.4,73.6,67.8,64.4,98,94,77,30.09,29.90,5,1,7,0.94
2013-11-6,56.2,53.0,51.8,46.2,44.6,43.3,80,73,65,30.14,29.92,5,1,9,0.00
2013-11-7,58.5,55.1,48.2,54.8,50.2,43.1,92,84,79,29.93,29.61,13,3,16,0.05
2013-11-8,43.6,40.3,36.5,35.1,29.7,25.8,78,66,57,29.99,29.80,16,8,22,0.00
2013-11-9,41.9,38.9,36.8,31.5,27.1,23.5,72,62,52,30.12,29.97,15,5,21,0.00
2013-11-10,44.0,39.7,34.7,40.5,36.6,29.4,96,89,69,29.97,29.67,14,1,17,0.00
2013-11-11,45.2,41.7,38.3,38.1,32.5,27.1,91,70,52,30.02,29.78,17,6,21,0.01
2013-11-12,45.0,34.5,30.8,37.2,27.0,20.5,87,74,61,30.11,29.79,18,11,25,0.00
2013-11-13,31.4,29.8,27.1,26.2,23.0,17.5,81,76,66,30.13,30.10,17,11,19,0.00
2013-11-15,50.7,45.8,39.0,36.7,28.1,20.3,85,52,32,30.15,30.05,4,1,17,0.00
2013-11-16,50.2,42.4,37.8,39.4,33.9,26.7,89,73,40,30.29,30.13,4,0,17,0.00
2013-11-17,45.9,41.2,35.1,45.4,39.3,31.6,98,93,82,30.30,29.83,7,2,17,0.14
2013-11-18,59.1,53.5,46.2,58.2,44.9,32.9,99,75,47,29.82,29.44,10,3,17,0.46
2013-11-19,47.2,37.8,33.8,34.5,27.7,22.8,82,67,55,30.24,29.56,22,13,31,0.01
2013-11-20,39.2,33.4,29.3,27.4,20.3,13.2,77,59,41,30.59,30.23,15,7,27,0.00
2013-11-21,42.9,33.9,26.8,27.5,19.6,13.6,83,57,32,30.60,30.31,3,1,20,0.00
2013-11-22,42.3,39.4,37.7,41.5,35.2,27.1,97,86,65,30.31,29.74,3,0,3,0.04
2013-11-23,46.7,36.4,28.1,42.8,28.7,18.6,96,74,47,29.87,29.68,19,8,26,0.02
2013-11-24,28.0,23.6,20.3,20.3,15.9,11.1,82,72,61,30.02,29.71,25,16,37,0.00
2013-11-25,29.6,26.0,18.6,18.2,10.6,4.4,72,52,39,30.30,30.18,14,4,22,0.00
2013-11-26,34.7,31.4,27.9,32.2,25.5,16.0,95,80,52,30.27,30.08,5,1,22,0.02
2013-11-27,49.0,41.1,33.5,48.5,39.7,31.8,100,95,84,30.06,29.18,12,4,22,2.41
2013-11-28,36.6,28.8,21.9,31.9,18.8,9.2,83,66,49,30.37,29.32,16,9,22,0.00
2013-11-29,27.6,22.7,18.6,17.5,12.3,9.6,77,64,52,30.71,30.36,11,4,22,0.00
2013-11-30,29.5,22.3,13.4,22.6,14.7,8.9,90,73,51,30.78,30.40,7,1,22,0.00
2013-12-1,36.5,33.2,29.1,35.0,29.8,21.5,96,88,72,30.40,30.02,4,0,22,0.01
2013-12-2,38.8,36.6,34.3,36.9,35.1,33.0,96,94,91,30.02,29.89,5,0,6,0.00
2013-12-3,39.5,36.2,34.1,37.0,33.9,30.6,98,91,73,29.90,29.82,9,2,9,0.01
2013-12-4,39.6,36.0,32.0,31.2,28.6,26.9,87,74,66,30.15,29.88,9,3,12,0.00
2013-12-5,37.8,35.0,30.3,37.3,32.9,27.2,98,92,83,30.19,29.87,6,1,6,0.09
2013-12-6,45.2,41.0,35.2,44.9,36.5,28.7,99,84,62,30.09,29.81,10,3,14,0.05
2013-12-7,35.6,32.9,28.4,33.5,24.1,15.8,99,70,56,30.39,30.03,15,7,24,0.01
2013-12-8,29.2,26.8,24.0,19.2,15.1,13.2,70,61,53,30.53,30.39,9,3,12,0.00
2013-12-9,29.4,26.1,23.5,28.4,22.3,14.2,96,86,58,30.47,29.82,9,4,13,0.00
2013-12-10,35.2,31.3,24.5,32.2,25.4,13.7,97,79,57,29.89,29.72,8,2,16,0.00
2013-12-11,24.5,23.6,23.2,16.1,14.4,13.3,71,67,65,29.97,29.89,5,3,6,0.00
2013-12-14,15.2,13.4,12.0,10.9,5.2,-1.6,91,71,49,30.55,30.28,10,4,12,0.00
2013-12-15,28.7,20.9,12.2,27.2,18.3,9.5,95,90,77,30.27,29.42,12,6,19,0.00
2013-12-16,24.7,21.2,10.3,19.8,11.7,0.4,82,67,48,30.16,29.64,12,5,21,0.00
2013-12-17,16.1,10.0,1.0,13.3,3.9,-7.0,91,76,60,30.24,30.00,8,2,10,0.00
2013-12-18,31.1,25.0,15.7,23.5,19.6,13.0,92,80,66,30.00,29.83,12,4,19,0.00
2013-12-19,38.6,32.5,24.0,30.1,24.4,20.4,87,72,58,30.03,29.88,4,1,9,0.04
2013-12-20,37.9,35.7,32.6,33.5,31.3,28.6,93,84,73,30.07,29.86,4,0,5,0.13
2013-12-21,39.2,36.6,35.0,38.2,35.3,33.3,98,95,88,29.89,29.80,2,0,4,0.14
2013-12-22,39.0,33.2,29.7,38.5,32.2,29.0,98,96,94,30.04,29.78,9,3,15,0.27
2013-12-23,36.0,32.1,29.3,34.9,31.2,28.6,98,97,91,30.07,29.94,5,1,8,0.30
2013-12-24,35.4,28.4,17.2,33.2,21.7,10.3,92,76,58,30.16,30.01,11,6,18,0.00
2013-12-25,19.9,14.4,8.4,12.8,7.3,1.0,82,73,57,30.50,30.16,16,5,19,0.00
2013-12-26,28.1,21.5,14.8,24.2,17.7,9.3,95,85,73,30.47,30.06,6,1,10,0.00
2013-12-27,31.6,27.9,23.7,24.5,21.5,19.4,90,77,61,30.18,30.11,6,1,12,0.00
2013-12-28,40.4,32.9,23.9,33.3,27.1,20.3,87,79,66,30.14,29.91,5,1,10,0.12
2013-12-29,36.6,32.9,30.8,32.7,31.3,29.0,97,94,82,29.96,29.51,3,0,6,0.04
2013-12-30,38.1,27.6,10.4,34.7,23.0,0.6,98,83,64,30.13,29.49,17,7,25,0.15
2013-12-31,17.1,11.0,5.2,14.1,2.3,-6.5,92,68,50,30.11,29.99,8,2,14,0.00
2014-1-1,20.8,17.0,14.2,12.5,8.3,6.1,85,68,57,30.35,30.09,10,3,12,0.00
2014-1-2,14.1,5.1,-1.7,8.1,0.9,-5.2,88,83,65,30.35,29.95,11,4,15,0.00